KDAL/DAL METAR and TAF weather

Enter ICAO airport designator
Station Type Date Time Source
KDAL METAR 2018/01/24 06:53 UTC NOAA

KDAL 240653Z 00000KT 10SM FEW010 SCT250 03/M03 A3037 RMK AO2 SLP285 FU FEW010 DSNT NW-NE-SE T00331033


Station Type Date Time Source
KDAL Decoded METAR 2018/01/24 06:53 UTC NOAA

DALLAS LOVE FIELD, TX, United States (KDAL) 32-51N 096-51W 158M
Jan 24, 2018 - 01:53 AM EST / 2018.01.24 0653 UTC
Wind: Calm:0
Visibility: 10 mile(s):0
Sky conditions: partly cloudy
Temperature: 37.9 F (3.3 C)
Dew Point: 26.1 F (-3.3 C)
Relative Humidity: 61%
Pressure (altimeter): 30.37 in. Hg (1028 hPa)
ob: KDAL 240653Z 00000KT 10SM FEW010 SCT250 03/M03 A3037 RMK AO2 SLP285 FU FEW010 DSNT NW-NE-SE T00331033
cycle: 7

Station Type Date Time Source
KDAL TAF 2018/01/24 06:22 UTC NOAA

TAF KDAL 240520Z 2406/2506 VRB03KT P6SM SCT250
FM241900 14005KT P6SM SCT250


Example: see airport list